Archival Weather

Ahwaz

Ahwaz, Iran (OIAW)

Report from: Sunday, October 1, 2023 1:30 PM +0330
Current time: Friday, July 19, 2024 6:10 AM +0330

Current weather – Weather history – Daily summaries
Weather forecast

Temperature39.0°C (102.2°F)
Heat index37.4°C (99.3°F)
Dew point10.0°C (50.0°F)
Winds 4 kts (2.1 m/s, 4.6 mph) East (100°)
Clouds Sky clear
Altimeter29.77 in.Hg (1008 mB)
Relative humidity18 %
Density altitude3,053 ft. (931 m)
Remarks Ceiling and visibility OK
Flight conditions Visual Meteorological Conditions
Raw dataOIAW 011000Z 10004KT CAVOK 39/10 Q1008
An error has occurred. This application may no longer respond until reloaded. Reload 🗙